Terminal Aerodrome Forecast
Issued by NWS

Home | Current Version | Previous Version | Text Only | Print | Product List | Glossary On
Versions: 1 2 3 4 5 6 7 8 9 10 11 12 13 14 15 16 17 18 19
243
FTUS46 KSGX 230816 AAA
TAFPSP
TAF AMD
KPSP 230816Z 2308/2406 VRB03KT P6SM -RA BKN014 BKN060 OVC090
     FM231700 31012G20KT P6SM VCTS SCT030CB BKN060
     FM232200 VRB06KT P6SM VCTS SCT030CB OVC070=

USA.gov is the U.S. government's official web portal to all federal, state and local government web resources and services.